This is the latest recevied weather packets stored in our database for station/object KK7RJD. If no packets are shown the sender has not sent any weather packets the latest 10 day(s).
| Time | Temp. | Humidity | Pressure | Rain* | Wind** | Luminosity | Snow |
|---|---|---|---|---|---|---|---|
| 1777612204 | 5.56° C | 44% | 1020.8 hPa | 0 mm | - | 0 W/m² | - |
| 1777611899 | 5.56° C | 43% | 1020.9 hPa | 0 mm | - | 0 W/m² | - |
| 1777611595 | 5.56° C | 43% | 1020.7 hPa | 0 mm | - | 0 W/m² | - |
| 1777611292 | 5.56° C | 44% | 1020.7 hPa | 0 mm | - | 0 W/m² | - |
| 1777610989 | 5.56° C | 44% | 1020.8 hPa | 0 mm | - | 0 W/m² | - |
| 1777610684 | 4.44° C | 47% | 1020.9 hPa | 0 mm | - | 0 W/m² | - |
| 1777610383 | 3.89° C | 50% | 1020.8 hPa | 0 mm | - | 0 W/m² | - |
| 1777610080 | 4.44° C | 49% | 1020.7 hPa | 0 mm | - | 0 W/m² | - |
| 1777609777 | 4.44° C | 48% | 1020.6 hPa | 0 mm | - | 0 W/m² | - |
| 1777609474 | 5° C | 47% | 1020.7 hPa | 0 mm | - | 0 W/m² | - |
| 1777609171 | 5.56° C | 45% | 1020.8 hPa | 0 mm | - | 0 W/m² | - |
| 1777608868 | 5.56° C | 42% | 1020.7 hPa | 0 mm | - | 0 W/m² | - |
| 1777608565 | 5.56° C | 42% | 1020.6 hPa | 0 mm | - | 0 W/m² | - |
| 1777608262 | 5.56° C | 41% | 1020.5 hPa | 0 mm | - | 0 W/m² | - |
| 1777607960 | 5.56° C | 44% | 1020.5 hPa | 0 mm | - | 0 W/m² | - |
| 1777607655 | 6.11° C | 42% | 1020.6 hPa | 0 mm | - | 0 W/m² | - |
| 1777607352 | 6.11° C | 42% | 1020.5 hPa | 0 mm | - | 0 W/m² | - |
| 1777607048 | 6.11° C | 40% | 1020.3 hPa | 0 mm | - | 0 W/m² | - |
| 1777606744 | 5.56° C | 41% | 1020.5 hPa | 0 mm | - | 0 W/m² | - |
| 1777606439 | 5.56° C | 42% | 1020.3 hPa | 0 mm | - | 0 W/m² | - |
| 1777606134 | 6.67° C | 41% | 1020.5 hPa | 0 mm | - | 0 W/m² | - |
| 1777605831 | 6.67° C | 39% | 1020.3 hPa | 0 mm | - | 0 W/m² | - |
| 1777605530 | 7.22° C | 39% | 1020.5 hPa | 0 mm | - | 0 W/m² | - |
| 1777605227 | 7.78° C | 38% | 1020.3 hPa | 0 mm | - | 0 W/m² | - |
| 1777604923 | 8.33° C | 36% | 1020.5 hPa | 0 mm | - | 0 W/m² | - |
* Rain latest hour (hover to see other rain measurements)
** Current wind speed in m/s (hover to see current wind gust speed)